Union Bridge, Maryland
Current Conditions -  °F | °C
As of 8:40 PM on Monday 22 Dec 2014 (Local Time) from KDMW Reporting Station
Unknown Precip Unknown Precip  
Wind Chill: 27°   Ceiling: 700
Heat Index: 32°   Visibility: 1.2mi
Dew Point: 30°   Wind: 5mph
Humidity: 93%   Direction: 40°NE
Pressure: 30.13"   Gusts: NA
Location:  39.57°N, 77.18°W
Report Text: KDMW 230140Z AUTO 04004KT 1 1/4SM UP VV007 00/M01 A3013 RMK AO2 P0002
Loading
Personal Weather Stations






























Interactive Weather Map New forecast layout! Learn more

10-Day Weather Forecast

Advertisements
Track Severe Weather on mobile